sensor_id;sensor_type;location;lat;lon;timestamp;P1;durP1;ratioP1;P2;durP2;ratioP2
1987;SDS011;12775;46.994;15.498;2022-07-29T00:00:59;5.58;;;5.24;;
1987;SDS011;12775;46.994;15.498;2022-07-29T00:03:25;6.42;;;5.88;;
1987;SDS011;12775;46.994;15.498;2022-07-29T00:05:52;6.06;;;5.46;;
1987;SDS011;12775;46.994;15.498;2022-07-29T00:08:19;7.20;;;6.60;;
1987;SDS011;12775;46.994;15.498;2022-07-29T00:10:45;6.14;;;5.70;;
1987;SDS011;12775;46.994;15.498;2022-07-29T00:13:12;6.34;;;5.92;;
1987;SDS011;12775;46.994;15.498;2022-07-29T00:15:38;7.58;;;6.56;;
1987;SDS011;12775;46.994;15.498;2022-07-29T00:18:05;5.92;;;5.42;;
1987;SDS011;12775;46.994;15.498;2022-07-29T00:20:32;7.80;;;7.06;;
1987;SDS011;12775;46.994;15.498;2022-07-29T00:22:58;7.20;;;6.74;;
1987;SDS011;12775;46.994;15.498;2022-07-29T00:25:25;7.32;;;6.30;;
1987;SDS011;12775;46.994;15.498;2022-07-29T00:27:51;7.22;;;6.68;;
1987;SDS011;12775;46.994;15.498;2022-07-29T00:30:18;6.40;;;5.90;;
1987;SDS011;12775;46.994;15.498;2022-07-29T00:32:45;6.24;;;5.76;;
1987;SDS011;12775;46.994;15.498;2022-07-29T00:35:12;6.32;;;5.82;;
1987;SDS011;12775;46.994;15.498;2022-07-29T00:37:44;7.44;;;6.84;;
1987;SDS011;12775;46.994;15.498;2022-07-29T00:40:11;7.74;;;7.12;;
1987;SDS011;12775;46.994;15.498;2022-07-29T00:42:42;7.46;;;6.92;;
1987;SDS011;12775;46.994;15.498;2022-07-29T00:45:12;7.96;;;7.40;;
1987;SDS011;12775;46.994;15.498;2022-07-29T00:47:38;7.60;;;6.28;;
1987;SDS011;12775;46.994;15.498;2022-07-29T00:50:05;8.28;;;6.98;;
1987;SDS011;12775;46.994;15.498;2022-07-29T00:52:33;7.52;;;6.96;;
1987;SDS011;12775;46.994;15.498;2022-07-29T00:54:59;7.40;;;6.90;;
1987;SDS011;12775;46.994;15.498;2022-07-29T00:57:26;7.68;;;7.16;;
1987;SDS011;12775;46.994;15.498;2022-07-29T00:59:52;8.68;;;7.88;;
1987;SDS011;12775;46.994;15.498;2022-07-29T01:02:19;7.58;;;6.90;;
1987;SDS011;12775;46.994;15.498;2022-07-29T01:04:45;6.70;;;6.10;;
1987;SDS011;12775;46.994;15.498;2022-07-29T01:07:12;6.60;;;5.62;;
1987;SDS011;12775;46.994;15.498;2022-07-29T01:09:39;6.54;;;6.04;;
1987;SDS011;12775;46.994;15.498;2022-07-29T01:12:06;6.38;;;5.90;;
1987;SDS011;12775;46.994;15.498;2022-07-29T01:14:33;6.42;;;5.84;;
1987;SDS011;12775;46.994;15.498;2022-07-29T01:17:01;6.70;;;6.10;;
1987;SDS011;12775;46.994;15.498;2022-07-29T01:22:07;6.64;;;6.14;;
1987;SDS011;12775;46.994;15.498;2022-07-29T01:25:05;7.62;;;7.06;;
1987;SDS011;12775;46.994;15.498;2022-07-29T01:27:21;6.32;;;5.80;;
1987;SDS011;12775;46.994;15.498;2022-07-29T01:29:58;7.16;;;6.60;;
1987;SDS011;12775;46.994;15.498;2022-07-29T01:32:26;5.94;;;5.48;;
1987;SDS011;12775;46.994;15.498;2022-07-29T01:34:56;8.14;;;7.44;;
1987;SDS011;12775;46.994;15.498;2022-07-29T01:37:22;7.02;;;5.80;;
1987;SDS011;12775;46.994;15.498;2022-07-29T01:39:49;6.42;;;5.92;;
1987;SDS011;12775;46.994;15.498;2022-07-29T01:42:23;6.46;;;5.90;;
1987;SDS011;12775;46.994;15.498;2022-07-29T01:44:59;6.82;;;6.22;;
1987;SDS011;12775;46.994;15.498;2022-07-29T01:47:43;5.88;;;5.44;;
1987;SDS011;12775;46.994;15.498;2022-07-29T01:50:10;6.22;;;5.72;;
1987;SDS011;12775;46.994;15.498;2022-07-29T01:52:39;6.12;;;5.62;;
1987;SDS011;12775;46.994;15.498;2022-07-29T01:55:06;6.74;;;6.20;;
1987;SDS011;12775;46.994;15.498;2022-07-29T01:57:34;6.48;;;5.72;;
1987;SDS011;12775;46.994;15.498;2022-07-29T02:00:00;6.76;;;6.26;;
1987;SDS011;12775;46.994;15.498;2022-07-29T02:02:27;5.98;;;5.56;;
1987;SDS011;12775;46.994;15.498;2022-07-29T02:04:54;6.68;;;6.14;;
1987;SDS011;12775;46.994;15.498;2022-07-29T02:07:21;6.16;;;5.66;;
1987;SDS011;12775;46.994;15.498;2022-07-29T02:09:47;5.82;;;5.42;;
1987;SDS011;12775;46.994;15.498;2022-07-29T02:12:14;6.08;;;5.68;;
1987;SDS011;12775;46.994;15.498;2022-07-29T02:14:41;6.38;;;5.88;;
1987;SDS011;12775;46.994;15.498;2022-07-29T02:17:06;6.82;;;6.32;;
1987;SDS011;12775;46.994;15.498;2022-07-29T02:19:33;7.04;;;6.54;;
1987;SDS011;12775;46.994;15.498;2022-07-29T02:22:00;7.74;;;5.28;;
1987;SDS011;12775;46.994;15.498;2022-07-29T02:24:26;7.16;;;5.42;;
1987;SDS011;12775;46.994;15.498;2022-07-29T02:26:53;7.24;;;6.50;;
1987;SDS011;12775;46.994;15.498;2022-07-29T02:29:21;6.08;;;5.68;;
1987;SDS011;12775;46.994;15.498;2022-07-29T02:31:46;5.70;;;5.22;;
1987;SDS011;12775;46.994;15.498;2022-07-29T02:34:13;6.78;;;6.08;;
1987;SDS011;12775;46.994;15.498;2022-07-29T02:36:39;6.36;;;5.96;;
1987;SDS011;12775;46.994;15.498;2022-07-29T02:39:06;6.62;;;6.10;;
1987;SDS011;12775;46.994;15.498;2022-07-29T02:41:35;6.40;;;5.96;;
1987;SDS011;12775;46.994;15.498;2022-07-29T02:44:03;7.42;;;6.88;;
1987;SDS011;12775;46.994;15.498;2022-07-29T02:46:32;6.10;;;5.60;;
1987;SDS011;12775;46.994;15.498;2022-07-29T02:49:07;6.80;;;6.12;;
1987;SDS011;12775;46.994;15.498;2022-07-29T02:51:40;7.46;;;6.64;;
1987;SDS011;12775;46.994;15.498;2022-07-29T02:54:03;7.36;;;6.46;;
1987;SDS011;12775;46.994;15.498;2022-07-29T02:56:29;6.70;;;6.10;;
1987;SDS011;12775;46.994;15.498;2022-07-29T02:58:57;7.18;;;6.58;;
1987;SDS011;12775;46.994;15.498;2022-07-29T03:01:23;6.52;;;6.02;;
1987;SDS011;12775;46.994;15.498;2022-07-29T03:03:50;7.10;;;6.56;;
1987;SDS011;12775;46.994;15.498;2022-07-29T03:06:16;6.62;;;6.12;;
1987;SDS011;12775;46.994;15.498;2022-07-29T03:08:42;6.94;;;6.34;;
1987;SDS011;12775;46.994;15.498;2022-07-29T03:11:09;6.20;;;5.80;;
1987;SDS011;12775;46.994;15.498;2022-07-29T03:13:35;7.76;;;7.08;;
1987;SDS011;12775;46.994;15.498;2022-07-29T03:16:02;7.50;;;6.50;;
1987;SDS011;12775;46.994;15.498;2022-07-29T03:18:29;7.70;;;7.10;;
1987;SDS011;12775;46.994;15.498;2022-07-29T03:20:56;9.16;;;7.94;;
1987;SDS011;12775;46.994;15.498;2022-07-29T03:23:23;6.94;;;6.44;;
1987;SDS011;12775;46.994;15.498;2022-07-29T03:25:50;6.72;;;6.22;;
1987;SDS011;12775;46.994;15.498;2022-07-29T03:28:17;7.40;;;6.84;;
1987;SDS011;12775;46.994;15.498;2022-07-29T03:30:43;7.22;;;6.72;;
1987;SDS011;12775;46.994;15.498;2022-07-29T03:33:11;6.86;;;6.18;;
1987;SDS011;12775;46.994;15.498;2022-07-29T03:35:37;6.08;;;5.58;;
1987;SDS011;12775;46.994;15.498;2022-07-29T03:38:04;7.78;;;5.94;;
1987;SDS011;12775;46.994;15.498;2022-07-29T03:40:31;5.64;;;5.12;;
1987;SDS011;12775;46.994;15.498;2022-07-29T03:43:00;6.20;;;5.80;;
1987;SDS011;12775;46.994;15.498;2022-07-29T03:45:26;6.24;;;5.72;;
1987;SDS011;12775;46.994;15.498;2022-07-29T03:47:56;6.98;;;6.42;;
1987;SDS011;12775;46.994;15.498;2022-07-29T03:50:21;6.84;;;6.34;;
1987;SDS011;12775;46.994;15.498;2022-07-29T03:52:48;5.98;;;5.56;;
1987;SDS011;12775;46.994;15.498;2022-07-29T03:55:14;6.26;;;5.76;;
1987;SDS011;12775;46.994;15.498;2022-07-29T03:57:41;9.16;;;6.64;;
1987;SDS011;12775;46.994;15.498;2022-07-29T04:00:08;6.28;;;5.78;;
1987;SDS011;12775;46.994;15.498;2022-07-29T04:02:36;5.98;;;5.58;;
1987;SDS011;12775;46.994;15.498;2022-07-29T04:05:02;7.10;;;6.48;;
1987;SDS011;12775;46.994;15.498;2022-07-29T04:07:29;7.28;;;6.58;;
1987;SDS011;12775;46.994;15.498;2022-07-29T04:09:55;8.06;;;7.42;;
1987;SDS011;12775;46.994;15.498;2022-07-29T04:12:22;8.90;;;6.50;;
1987;SDS011;12775;46.994;15.498;2022-07-29T04:14:49;6.54;;;5.90;;
1987;SDS011;12775;46.994;15.498;2022-07-29T04:17:15;8.52;;;6.80;;
1987;SDS011;12775;46.994;15.498;2022-07-29T04:19:43;7.82;;;6.64;;
1987;SDS011;12775;46.994;15.498;2022-07-29T04:22:09;8.34;;;7.60;;
1987;SDS011;12775;46.994;15.498;2022-07-29T04:24:36;8.52;;;6.62;;
1987;SDS011;12775;46.994;15.498;2022-07-29T04:27:03;9.34;;;8.38;;
1987;SDS011;12775;46.994;15.498;2022-07-29T04:29:29;9.98;;;7.96;;
1987;SDS011;12775;46.994;15.498;2022-07-29T04:31:56;9.20;;;8.30;;
1987;SDS011;12775;46.994;15.498;2022-07-29T04:34:22;8.66;;;7.96;;
1987;SDS011;12775;46.994;15.498;2022-07-29T04:36:49;8.74;;;7.82;;
1987;SDS011;12775;46.994;15.498;2022-07-29T04:39:16;9.26;;;8.26;;
1987;SDS011;12775;46.994;15.498;2022-07-29T04:41:44;7.30;;;6.70;;
1987;SDS011;12775;46.994;15.498;2022-07-29T04:44:11;7.92;;;7.00;;
1987;SDS011;12775;46.994;15.498;2022-07-29T04:46:38;8.96;;;8.16;;
1987;SDS011;12775;46.994;15.498;2022-07-29T04:49:06;8.26;;;7.66;;
1987;SDS011;12775;46.994;15.498;2022-07-29T04:51:33;8.70;;;8.00;;
1987;SDS011;12775;46.994;15.498;2022-07-29T04:54:01;9.12;;;8.30;;
1987;SDS011;12775;46.994;15.498;2022-07-29T04:56:28;10.16;;;9.18;;
1987;SDS011;12775;46.994;15.498;2022-07-29T04:58:55;9.46;;;8.60;;
1987;SDS011;12775;46.994;15.498;2022-07-29T05:01:24;8.08;;;7.48;;
1987;SDS011;12775;46.994;15.498;2022-07-29T05:03:51;8.92;;;8.18;;
1987;SDS011;12775;46.994;15.498;2022-07-29T05:06:18;9.00;;;8.30;;
1987;SDS011;12775;46.994;15.498;2022-07-29T05:08:46;9.32;;;8.34;;
1987;SDS011;12775;46.994;15.498;2022-07-29T05:13:51;9.70;;;8.90;;
1987;SDS011;12775;46.994;15.498;2022-07-29T05:16:19;8.32;;;7.70;;
1987;SDS011;12775;46.994;15.498;2022-07-29T05:18:46;8.28;;;7.58;;
1987;SDS011;12775;46.994;15.498;2022-07-29T05:21:14;8.94;;;8.14;;
1987;SDS011;12775;46.994;15.498;2022-07-29T05:23:41;8.24;;;7.64;;
1987;SDS011;12775;46.994;15.498;2022-07-29T05:26:08;10.76;;;9.86;;
1987;SDS011;12775;46.994;15.498;2022-07-29T05:28:36;10.50;;;9.70;;
1987;SDS011;12775;46.994;15.498;2022-07-29T05:31:03;10.80;;;9.02;;
1987;SDS011;12775;46.994;15.498;2022-07-29T05:33:31;9.94;;;8.94;;
1987;SDS011;12775;46.994;15.498;2022-07-29T05:35:58;10.02;;;9.24;;
1987;SDS011;12775;46.994;15.498;2022-07-29T05:38:26;10.76;;;9.88;;
1987;SDS011;12775;46.994;15.498;2022-07-29T05:40:55;10.90;;;10.00;;
1987;SDS011;12775;46.994;15.498;2022-07-29T05:43:20;9.68;;;8.78;;
1987;SDS011;12775;46.994;15.498;2022-07-29T05:45:48;10.04;;;9.32;;
1987;SDS011;12775;46.994;15.498;2022-07-29T05:48:15;10.44;;;9.40;;
1987;SDS011;12775;46.994;15.498;2022-07-29T05:50:42;10.54;;;9.60;;
1987;SDS011;12775;46.994;15.498;2022-07-29T05:53:10;10.52;;;9.72;;
1987;SDS011;12775;46.994;15.498;2022-07-29T05:55:37;9.34;;;8.54;;
1987;SDS011;12775;46.994;15.498;2022-07-29T05:58:05;9.88;;;8.98;;
1987;SDS011;12775;46.994;15.498;2022-07-29T06:00:32;9.64;;;8.58;;
1987;SDS011;12775;46.994;15.498;2022-07-29T06:02:59;12.52;;;10.00;;
1987;SDS011;12775;46.994;15.498;2022-07-29T06:05:27;10.90;;;9.78;;
1987;SDS011;12775;46.994;15.498;2022-07-29T06:07:54;10.74;;;9.68;;
1987;SDS011;12775;46.994;15.498;2022-07-29T06:10:22;21.20;;;9.24;;
1987;SDS011;12775;46.994;15.498;2022-07-29T06:12:49;8.94;;;8.24;;
1987;SDS011;12775;46.994;15.498;2022-07-29T06:15:17;10.36;;;9.12;;
1987;SDS011;12775;46.994;15.498;2022-07-29T06:17:44;9.34;;;8.50;;
1987;SDS011;12775;46.994;15.498;2022-07-29T06:20:12;8.88;;;8.28;;
1987;SDS011;12775;46.994;15.498;2022-07-29T06:22:39;10.34;;;9.44;;
1987;SDS011;12775;46.994;15.498;2022-07-29T06:25:07;9.24;;;8.22;;
1987;SDS011;12775;46.994;15.498;2022-07-29T06:27:33;10.88;;;9.78;;
1987;SDS011;12775;46.994;15.498;2022-07-29T06:30:00;8.44;;;7.74;;
1987;SDS011;12775;46.994;15.498;2022-07-29T06:32:27;8.46;;;7.86;;
1987;SDS011;12775;46.994;15.498;2022-07-29T06:34:53;9.66;;;8.76;;
1987;SDS011;12775;46.994;15.498;2022-07-29T06:37:20;9.58;;;8.34;;
1987;SDS011;12775;46.994;15.498;2022-07-29T06:39:46;9.58;;;8.78;;
1987;SDS011;12775;46.994;15.498;2022-07-29T06:42:13;9.62;;;8.72;;
1987;SDS011;12775;46.994;15.498;2022-07-29T06:44:40;8.32;;;7.52;;
1987;SDS011;12775;46.994;15.498;2022-07-29T06:47:06;7.88;;;7.08;;
1987;SDS011;12775;46.994;15.498;2022-07-29T06:49:33;8.72;;;8.04;;
1987;SDS011;12775;46.994;15.498;2022-07-29T06:52:00;8.74;;;8.04;;
1987;SDS011;12775;46.994;15.498;2022-07-29T06:54:27;8.38;;;7.60;;
1987;SDS011;12775;46.994;15.498;2022-07-29T06:56:54;8.30;;;7.60;;
1987;SDS011;12775;46.994;15.498;2022-07-29T06:59:21;10.64;;;7.80;;
1987;SDS011;12775;46.994;15.498;2022-07-29T07:01:47;9.98;;;9.04;;
1987;SDS011;12775;46.994;15.498;2022-07-29T07:04:14;8.50;;;7.58;;
1987;SDS011;12775;46.994;15.498;2022-07-29T07:06:41;7.92;;;7.22;;
1987;SDS011;12775;46.994;15.498;2022-07-29T07:09:07;7.96;;;7.36;;
1987;SDS011;12775;46.994;15.498;2022-07-29T07:11:34;8.12;;;7.52;;
1987;SDS011;12775;46.994;15.498;2022-07-29T07:14:00;12.36;;;8.52;;
1987;SDS011;12775;46.994;15.498;2022-07-29T07:16:27;7.86;;;7.26;;
1987;SDS011;12775;46.994;15.498;2022-07-29T07:18:55;6.94;;;6.50;;
1987;SDS011;12775;46.994;15.498;2022-07-29T07:21:21;7.66;;;7.06;;
1987;SDS011;12775;46.994;15.498;2022-07-29T07:23:48;7.72;;;7.12;;
1987;SDS011;12775;46.994;15.498;2022-07-29T07:26:14;6.16;;;5.72;;
1987;SDS011;12775;46.994;15.498;2022-07-29T07:28:41;7.32;;;6.82;;
1987;SDS011;12775;46.994;15.498;2022-07-29T07:31:08;8.00;;;7.30;;
1987;SDS011;12775;46.994;15.498;2022-07-29T07:33:34;7.10;;;6.50;;
1987;SDS011;12775;46.994;15.498;2022-07-29T07:36:01;7.16;;;6.64;;
1987;SDS011;12775;46.994;15.498;2022-07-29T07:38:27;7.00;;;6.50;;
1987;SDS011;12775;46.994;15.498;2022-07-29T07:40:54;8.72;;;6.48;;
1987;SDS011;12775;46.994;15.498;2022-07-29T07:43:21;6.82;;;6.32;;
1987;SDS011;12775;46.994;15.498;2022-07-29T07:45:47;6.70;;;6.10;;
1987;SDS011;12775;46.994;15.498;2022-07-29T07:48:14;7.10;;;6.62;;
1987;SDS011;12775;46.994;15.498;2022-07-29T07:50:40;7.18;;;6.68;;
1987;SDS011;12775;46.994;15.498;2022-07-29T07:53:07;7.42;;;6.74;;
1987;SDS011;12775;46.994;15.498;2022-07-29T07:55:37;7.00;;;6.50;;
1987;SDS011;12775;46.994;15.498;2022-07-29T07:58:01;6.66;;;6.10;;
1987;SDS011;12775;46.994;15.498;2022-07-29T08:00:28;9.36;;;6.52;;
1987;SDS011;12775;46.994;15.498;2022-07-29T08:02:54;6.32;;;5.92;;
1987;SDS011;12775;46.994;15.498;2022-07-29T08:05:21;6.74;;;6.28;;
1987;SDS011;12775;46.994;15.498;2022-07-29T08:07:48;6.74;;;6.14;;
1987;SDS011;12775;46.994;15.498;2022-07-29T08:10:15;7.64;;;6.82;;
1987;SDS011;12775;46.994;15.498;2022-07-29T08:12:41;7.48;;;6.78;;
1987;SDS011;12775;46.994;15.498;2022-07-29T08:15:08;6.62;;;6.04;;
1987;SDS011;12775;46.994;15.498;2022-07-29T08:17:34;5.88;;;5.38;;
1987;SDS011;12775;46.994;15.498;2022-07-29T08:20:01;6.76;;;6.26;;
1987;SDS011;12775;46.994;15.498;2022-07-29T08:22:28;6.96;;;6.38;;
1987;SDS011;12775;46.994;15.498;2022-07-29T08:24:54;8.40;;;5.58;;
1987;SDS011;12775;46.994;15.498;2022-07-29T08:27:21;6.28;;;5.78;;
1987;SDS011;12775;46.994;15.498;2022-07-29T08:29:48;6.28;;;5.86;;
1987;SDS011;12775;46.994;15.498;2022-07-29T08:32:14;6.56;;;6.04;;
1987;SDS011;12775;46.994;15.498;2022-07-29T08:34:41;6.34;;;5.84;;
1987;SDS011;12775;46.994;15.498;2022-07-29T08:37:07;5.98;;;5.16;;
1987;SDS011;12775;46.994;15.498;2022-07-29T08:39:34;6.10;;;5.70;;
1987;SDS011;12775;46.994;15.498;2022-07-29T08:42:01;5.22;;;4.66;;
1987;SDS011;12775;46.994;15.498;2022-07-29T08:44:27;4.80;;;4.40;;
1987;SDS011;12775;46.994;15.498;2022-07-29T08:46:55;7.16;;;6.66;;
1987;SDS011;12775;46.994;15.498;2022-07-29T08:49:21;5.24;;;4.84;;
1987;SDS011;12775;46.994;15.498;2022-07-29T08:51:48;4.36;;;4.06;;
1987;SDS011;12775;46.994;15.498;2022-07-29T08:54:16;6.50;;;5.00;;
1987;SDS011;12775;46.994;15.498;2022-07-29T08:56:41;4.14;;;3.84;;
1987;SDS011;12775;46.994;15.498;2022-07-29T08:59:08;4.54;;;4.02;;
1987;SDS011;12775;46.994;15.498;2022-07-29T09:01:34;6.62;;;4.86;;
1987;SDS011;12775;46.994;15.498;2022-07-29T09:04:02;5.20;;;4.80;;
1987;SDS011;12775;46.994;15.498;2022-07-29T09:06:29;4.64;;;4.34;;
1987;SDS011;12775;46.994;15.498;2022-07-29T09:08:56;5.86;;;4.70;;
1987;SDS011;12775;46.994;15.498;2022-07-29T09:11:22;6.04;;;5.64;;
1987;SDS011;12775;46.994;15.498;2022-07-29T09:13:48;5.58;;;5.10;;
1987;SDS011;12775;46.994;15.498;2022-07-29T09:16:15;5.60;;;5.14;;
1987;SDS011;12775;46.994;15.498;2022-07-29T09:18:42;5.48;;;5.08;;
1987;SDS011;12775;46.994;15.498;2022-07-29T09:21:09;5.62;;;5.12;;
1987;SDS011;12775;46.994;15.498;2022-07-29T09:23:40;6.02;;;5.58;;
1987;SDS011;12775;46.994;15.498;2022-07-29T09:26:07;6.40;;;5.88;;
1987;SDS011;12775;46.994;15.498;2022-07-29T09:28:33;6.74;;;6.14;;
1987;SDS011;12775;46.994;15.498;2022-07-29T09:31:00;7.86;;;5.92;;
1987;SDS011;12775;46.994;15.498;2022-07-29T09:33:31;6.90;;;6.36;;
1987;SDS011;12775;46.994;15.498;2022-07-29T09:36:03;7.52;;;6.90;;
1987;SDS011;12775;46.994;15.498;2022-07-29T09:38:28;7.84;;;6.48;;
1987;SDS011;12775;46.994;15.498;2022-07-29T09:40:56;5.78;;;5.28;;
1987;SDS011;12775;46.994;15.498;2022-07-29T09:43:21;6.12;;;5.62;;
1987;SDS011;12775;46.994;15.498;2022-07-29T09:45:48;6.06;;;5.56;;
1987;SDS011;12775;46.994;15.498;2022-07-29T09:48:16;6.82;;;6.28;;
1987;SDS011;12775;46.994;15.498;2022-07-29T09:50:42;6.62;;;6.12;;
1987;SDS011;12775;46.994;15.498;2022-07-29T09:53:09;5.90;;;5.40;;
1987;SDS011;12775;46.994;15.498;2022-07-29T09:58:15;5.98;;;5.58;;
1987;SDS011;12775;46.994;15.498;2022-07-29T10:00:42;7.24;;;6.10;;
1987;SDS011;12775;46.994;15.498;2022-07-29T10:03:09;6.16;;;5.62;;
1987;SDS011;12775;46.994;15.498;2022-07-29T10:05:35;6.92;;;6.42;;
1987;SDS011;12775;46.994;15.498;2022-07-29T10:08:02;5.94;;;5.12;;
1987;SDS011;12775;46.994;15.498;2022-07-29T10:10:30;5.14;;;4.76;;
1987;SDS011;12775;46.994;15.498;2022-07-29T10:12:56;5.54;;;5.14;;
1987;SDS011;12775;46.994;15.498;2022-07-29T10:15:23;5.04;;;4.74;;
1987;SDS011;12775;46.994;15.498;2022-07-29T10:17:50;5.28;;;4.88;;
1987;SDS011;12775;46.994;15.498;2022-07-29T10:20:16;5.22;;;4.82;;
1987;SDS011;12775;46.994;15.498;2022-07-29T10:22:42;5.54;;;5.14;;
1987;SDS011;12775;46.994;15.498;2022-07-29T10:25:09;7.04;;;5.44;;
1987;SDS011;12775;46.994;15.498;2022-07-29T10:27:36;5.12;;;4.62;;
1987;SDS011;12775;46.994;15.498;2022-07-29T10:30:03;5.30;;;4.90;;
1987;SDS011;12775;46.994;15.498;2022-07-29T10:32:39;5.40;;;5.00;;
1987;SDS011;12775;46.994;15.498;2022-07-29T10:35:12;5.36;;;4.60;;
1987;SDS011;12775;46.994;15.498;2022-07-29T10:37:46;7.10;;;4.82;;
1987;SDS011;12775;46.994;15.498;2022-07-29T10:40:44;5.82;;;5.40;;
1987;SDS011;12775;46.994;15.498;2022-07-29T10:43:17;5.22;;;4.60;;
1987;SDS011;12775;46.994;15.498;2022-07-29T10:45:42;5.02;;;4.62;;
1987;SDS011;12775;46.994;15.498;2022-07-29T10:48:09;5.86;;;5.48;;
1987;SDS011;12775;46.994;15.498;2022-07-29T10:53:14;5.24;;;4.84;;
1987;SDS011;12775;46.994;15.498;2022-07-29T10:55:40;5.16;;;4.76;;
1987;SDS011;12775;46.994;15.498;2022-07-29T10:58:10;5.42;;;4.92;;
1987;SDS011;12775;46.994;15.498;2022-07-29T11:00:46;4.50;;;4.20;;
1987;SDS011;12775;46.994;15.498;2022-07-29T11:03:48;5.36;;;4.96;;
1987;SDS011;12775;46.994;15.498;2022-07-29T11:06:04;5.42;;;5.02;;
1987;SDS011;12775;46.994;15.498;2022-07-29T11:08:31;4.58;;;4.24;;
1987;SDS011;12775;46.994;15.498;2022-07-29T11:16:14;5.30;;;4.90;;
1987;SDS011;12775;46.994;15.498;2022-07-29T11:24:13;6.26;;;5.66;;
1987;SDS011;12775;46.994;15.498;2022-07-29T11:26:41;5.22;;;4.82;;
1987;SDS011;12775;46.994;15.498;2022-07-29T11:31:49;5.54;;;5.14;;
1987;SDS011;12775;46.994;15.498;2022-07-29T11:34:21;4.46;;;4.16;;
1987;SDS011;12775;46.994;15.498;2022-07-29T11:39:27;4.74;;;4.34;;
1987;SDS011;12775;46.994;15.498;2022-07-29T11:42:28;5.60;;;4.96;;
1987;SDS011;12775;46.994;15.498;2022-07-29T11:44:22;5.62;;;5.18;;
1987;SDS011;12775;46.994;15.498;2022-07-29T11:46:48;6.02;;;5.52;;
1987;SDS011;12775;46.994;15.498;2022-07-29T11:49:21;8.02;;;7.22;;
1987;SDS011;12775;46.994;15.498;2022-07-29T11:51:53;28.34;;;6.70;;
1987;SDS011;12775;46.994;15.498;2022-07-29T11:54:24;8.98;;;5.36;;
1987;SDS011;12775;46.994;15.498;2022-07-29T11:56:50;5.20;;;4.80;;
1987;SDS011;12775;46.994;15.498;2022-07-29T11:59:17;5.86;;;5.38;;
1987;SDS011;12775;46.994;15.498;2022-07-29T12:01:52;5.16;;;4.76;;
1987;SDS011;12775;46.994;15.498;2022-07-29T12:04:20;5.56;;;4.72;;
1987;SDS011;12775;46.994;15.498;2022-07-29T12:06:49;4.76;;;4.36;;
1987;SDS011;12775;46.994;15.498;2022-07-29T12:09:14;5.32;;;4.12;;
1987;SDS011;12775;46.994;15.498;2022-07-29T12:11:41;5.16;;;4.86;;
1987;SDS011;12775;46.994;15.498;2022-07-29T12:14:08;5.16;;;4.68;;
1987;SDS011;12775;46.994;15.498;2022-07-29T12:16:35;5.44;;;5.04;;
1987;SDS011;12775;46.994;15.498;2022-07-29T12:19:01;5.32;;;4.92;;
1987;SDS011;12775;46.994;15.498;2022-07-29T12:21:28;6.42;;;5.82;;
1987;SDS011;12775;46.994;15.498;2022-07-29T12:23:55;5.58;;;5.18;;
1987;SDS011;12775;46.994;15.498;2022-07-29T12:26:22;4.90;;;4.56;;
1987;SDS011;12775;46.994;15.498;2022-07-29T12:28:48;5.72;;;3.90;;
1987;SDS011;12775;46.994;15.498;2022-07-29T12:31:15;5.20;;;4.80;;
1987;SDS011;12775;46.994;15.498;2022-07-29T12:33:42;5.86;;;4.52;;
1987;SDS011;12775;46.994;15.498;2022-07-29T12:36:09;5.36;;;5.00;;
1987;SDS011;12775;46.994;15.498;2022-07-29T12:38:35;5.38;;;4.90;;
1987;SDS011;12775;46.994;15.498;2022-07-29T12:41:02;4.68;;;4.38;;
1987;SDS011;12775;46.994;15.498;2022-07-29T12:43:29;4.18;;;3.88;;
1987;SDS011;12775;46.994;15.498;2022-07-29T12:45:56;5.40;;;4.90;;
1987;SDS011;12775;46.994;15.498;2022-07-29T12:51:00;5.28;;;4.46;;
1987;SDS011;12775;46.994;15.498;2022-07-29T12:53:27;5.64;;;4.40;;
1987;SDS011;12775;46.994;15.498;2022-07-29T12:55:54;5.92;;;5.40;;
1987;SDS011;12775;46.994;15.498;2022-07-29T13:01:01;5.56;;;5.16;;
1987;SDS011;12775;46.994;15.498;2022-07-29T13:03:29;7.74;;;5.58;;
1987;SDS011;12775;46.994;15.498;2022-07-29T13:05:55;4.66;;;4.26;;
1987;SDS011;12775;46.994;15.498;2022-07-29T13:08:22;5.54;;;5.10;;
1987;SDS011;12775;46.994;15.498;2022-07-29T13:10:48;5.58;;;5.14;;
1987;SDS011;12775;46.994;15.498;2022-07-29T13:13:15;5.72;;;5.32;;
1987;SDS011;12775;46.994;15.498;2022-07-29T13:15:43;5.20;;;4.80;;
1987;SDS011;12775;46.994;15.498;2022-07-29T13:20:47;5.68;;;5.28;;
1987;SDS011;12775;46.994;15.498;2022-07-29T13:23:14;6.24;;;5.70;;
1987;SDS011;12775;46.994;15.498;2022-07-29T13:25:42;6.18;;;5.68;;
1987;SDS011;12775;46.994;15.498;2022-07-29T13:28:15;5.86;;;5.46;;
1987;SDS011;12775;46.994;15.498;2022-07-29T13:30:41;6.08;;;5.22;;
1987;SDS011;12775;46.994;15.498;2022-07-29T13:33:08;6.54;;;6.04;;
1987;SDS011;12775;46.994;15.498;2022-07-29T13:35:36;5.84;;;5.36;;
1987;SDS011;12775;46.994;15.498;2022-07-29T13:38:03;6.42;;;5.92;;
1987;SDS011;12775;46.994;15.498;2022-07-29T13:40:29;6.32;;;5.92;;
1987;SDS011;12775;46.994;15.498;2022-07-29T13:42:56;5.30;;;4.90;;
1987;SDS011;12775;46.994;15.498;2022-07-29T13:45:22;9.38;;;5.42;;
1987;SDS011;12775;46.994;15.498;2022-07-29T13:47:49;7.16;;;6.56;;
1987;SDS011;12775;46.994;15.498;2022-07-29T13:50:16;5.64;;;5.24;;
1987;SDS011;12775;46.994;15.498;2022-07-29T13:52:42;6.52;;;6.08;;
1987;SDS011;12775;46.994;15.498;2022-07-29T13:55:09;6.48;;;6.08;;
1987;SDS011;12775;46.994;15.498;2022-07-29T13:57:35;6.04;;;5.60;;
1987;SDS011;12775;46.994;15.498;2022-07-29T14:00:02;5.72;;;5.22;;
1987;SDS011;12775;46.994;15.498;2022-07-29T14:02:29;5.52;;;5.16;;
1987;SDS011;12775;46.994;15.498;2022-07-29T14:04:55;5.44;;;5.14;;
1987;SDS011;12775;46.994;15.498;2022-07-29T14:07:22;6.48;;;5.98;;
1987;SDS011;12775;46.994;15.498;2022-07-29T14:09:49;6.96;;;6.36;;
1987;SDS011;12775;46.994;15.498;2022-07-29T14:12:15;5.72;;;5.32;;
1987;SDS011;12775;46.994;15.498;2022-07-29T14:14:42;5.56;;;5.16;;
1987;SDS011;12775;46.994;15.498;2022-07-29T14:17:09;6.26;;;5.66;;
1987;SDS011;12775;46.994;15.498;2022-07-29T14:19:35;5.90;;;5.28;;
1987;SDS011;12775;46.994;15.498;2022-07-29T14:22:02;5.74;;;5.34;;
1987;SDS011;12775;46.994;15.498;2022-07-29T14:24:29;6.28;;;5.78;;
1987;SDS011;12775;46.994;15.498;2022-07-29T14:26:56;6.24;;;5.84;;
1987;SDS011;12775;46.994;15.498;2022-07-29T14:29:23;4.68;;;4.36;;
1987;SDS011;12775;46.994;15.498;2022-07-29T14:31:50;6.94;;;4.56;;
1987;SDS011;12775;46.994;15.498;2022-07-29T14:34:17;4.92;;;4.58;;
1987;SDS011;12775;46.994;15.498;2022-07-29T14:36:44;5.06;;;4.64;;
1987;SDS011;12775;46.994;15.498;2022-07-29T14:39:10;6.08;;;5.58;;
1987;SDS011;12775;46.994;15.498;2022-07-29T14:41:37;6.06;;;5.50;;
1987;SDS011;12775;46.994;15.498;2022-07-29T14:44:04;4.92;;;4.60;;
1987;SDS011;12775;46.994;15.498;2022-07-29T14:46:30;5.64;;;5.30;;
1987;SDS011;12775;46.994;15.498;2022-07-29T14:48:57;6.06;;;5.56;;
1987;SDS011;12775;46.994;15.498;2022-07-29T14:51:24;6.28;;;5.78;;
1987;SDS011;12775;46.994;15.498;2022-07-29T14:53:51;5.70;;;5.20;;
1987;SDS011;12775;46.994;15.498;2022-07-29T14:56:17;5.98;;;5.48;;
1987;SDS011;12775;46.994;15.498;2022-07-29T14:58:44;5.10;;;4.80;;
1987;SDS011;12775;46.994;15.498;2022-07-29T15:01:11;6.72;;;6.12;;
1987;SDS011;12775;46.994;15.498;2022-07-29T15:03:37;7.42;;;6.86;;
1987;SDS011;12775;46.994;15.498;2022-07-29T15:06:04;5.10;;;4.60;;
1987;SDS011;12775;46.994;15.498;2022-07-29T15:08:30;6.02;;;5.60;;
1987;SDS011;12775;46.994;15.498;2022-07-29T15:10:57;5.64;;;5.14;;
1987;SDS011;12775;46.994;15.498;2022-07-29T15:13:24;5.86;;;5.46;;
1987;SDS011;12775;46.994;15.498;2022-07-29T15:15:50;5.32;;;4.92;;
1987;SDS011;12775;46.994;15.498;2022-07-29T15:18:18;5.64;;;5.18;;
1987;SDS011;12775;46.994;15.498;2022-07-29T15:20:44;5.30;;;4.88;;
1987;SDS011;12775;46.994;15.498;2022-07-29T15:23:11;6.68;;;6.08;;